createdAt,value
2019-01-13T00:03:15.716Z,99829.88
2019-01-13T00:05:41.628Z,99809.63
2019-01-13T00:08:07.638Z,99802.44
2019-01-13T00:10:33.607Z,99815.81
2019-01-13T00:12:59.495Z,99806.48
2019-01-13T00:15:25.384Z,99822.19
2019-01-13T00:17:51.293Z,99814.62
2019-01-13T00:20:17.163Z,99800.50
2019-01-13T00:22:43.106Z,99811.72
2019-01-13T00:25:08.969Z,99814.56
2019-01-13T00:27:34.887Z,99813.65
2019-01-13T00:30:00.776Z,99809.13
2019-01-13T00:32:26.635Z,99819.34
2019-01-13T00:34:52.550Z,99818.97
2019-01-13T00:37:18.489Z,99842.33
2019-01-13T00:39:44.406Z,99820.56
2019-01-13T00:42:10.268Z,99812.95
2019-01-13T00:44:36.178Z,99831.41
2019-01-13T00:47:02.052Z,99822.41
2019-01-13T00:49:27.988Z,99825.05
2019-01-13T00:51:53.882Z,99828.61
2019-01-13T00:54:19.711Z,99832.87
2019-01-13T00:56:45.634Z,99827.91
2019-01-13T00:59:11.538Z,99834.53
2019-01-13T01:01:37.491Z,99833.12
2019-01-13T01:04:03.396Z,99835.34
2019-01-13T01:06:29.408Z,99831.41
2019-01-13T01:08:55.388Z,99830.27
2019-01-13T01:13:55.132Z,99832.97
2019-01-13T01:16:21.153Z,99827.00
2019-01-13T01:18:47.026Z,99824.50
2019-01-13T01:21:12.897Z,99825.51
2019-01-13T01:23:38.811Z,99828.93
2019-01-13T01:26:04.672Z,99823.05
2019-01-13T01:28:30.572Z,99815.55
2019-01-13T01:30:56.465Z,99815.48
2019-01-13T01:33:25.969Z,99822.73
2019-01-13T01:35:50.384Z,99813.09
2019-01-13T01:38:16.299Z,99820.84
2019-01-13T01:40:42.225Z,99832.68
2019-01-13T01:43:08.088Z,99823.29
2019-01-13T01:45:34.002Z,99830.95
2019-01-13T01:47:59.871Z,99813.74
2019-01-13T01:50:25.780Z,99815.88
2019-01-13T01:52:51.659Z,99814.02
2019-01-13T01:55:17.575Z,99806.62
2019-01-13T01:57:43.471Z,99813.23
2019-01-13T02:00:29.209Z,99808.41
2019-01-13T02:02:55.086Z,99804.81
2019-01-13T02:05:21.052Z,99806.34
2019-01-13T02:07:46.911Z,99820.28
2019-01-13T02:10:54.459Z,99812.98
2019-01-13T02:13:20.431Z,99805.94
2019-01-13T02:15:46.330Z,99801.61
2019-01-13T02:18:12.242Z,99805.84
2019-01-13T02:20:38.136Z,99800.08
2019-01-13T02:23:04.042Z,99820.84
2019-01-13T02:25:29.902Z,99800.70
2019-01-13T02:27:55.798Z,99808.98
2019-01-13T02:31:03.308Z,99799.74
2019-01-13T02:33:29.262Z,99804.64
2019-01-13T02:35:55.175Z,99809.94
2019-01-13T02:38:21.032Z,99799.92
2019-01-13T02:40:47.274Z,99814.38
2019-01-13T02:43:13.163Z,99820.16
2019-01-13T02:45:39.067Z,99797.89
2019-01-13T02:48:04.944Z,99785.16
2019-01-13T02:50:30.872Z,99800.22
2019-01-13T02:52:56.717Z,99783.16
2019-01-13T02:55:22.645Z,99781.98
2019-01-13T02:57:48.534Z,99776.75
2019-01-13T03:00:34.310Z,99768.52
2019-01-13T03:03:00.247Z,99767.70
2019-01-13T03:05:26.121Z,99786.84
2019-01-13T03:07:52.226Z,99774.96
2019-01-13T03:10:59.721Z,99780.00
2019-01-13T03:13:25.695Z,99783.92
2019-01-13T03:15:51.563Z,99794.30
2019-01-13T03:18:17.457Z,99788.43
2019-01-13T03:20:43.331Z,99778.75
2019-01-13T03:23:09.247Z,99779.37
2019-01-13T03:25:35.118Z,99788.83
2019-01-13T03:28:01.030Z,99783.55
2019-01-13T03:30:26.957Z,99785.09
2019-01-13T03:32:52.863Z,99783.94
2019-01-13T03:35:18.737Z,99780.48
2019-01-13T03:37:44.627Z,99792.03
2019-01-13T03:40:52.168Z,99779.52
2019-01-13T03:43:18.110Z,99773.31
2019-01-13T03:45:44.008Z,99777.28
2019-01-13T03:48:09.875Z,99769.30
2019-01-13T03:50:35.791Z,99765.67
2019-01-13T03:53:01.668Z,99767.45
2019-01-13T03:55:27.569Z,99756.55
2019-01-13T03:57:53.432Z,99758.05
2019-01-13T04:01:00.969Z,99748.84
2019-01-13T04:03:26.914Z,99745.98
2019-01-13T04:05:52.857Z,99754.80
2019-01-13T04:08:18.744Z,99751.45
2019-01-13T04:10:44.613Z,99745.12
2019-01-13T04:13:10.507Z,99737.16
2019-01-13T04:15:56.276Z,99726.39
2019-01-13T04:18:35.228Z,99738.06
2019-01-13T04:21:01.143Z,99730.38
2019-01-13T04:23:27.058Z,99731.01
2019-01-13T04:25:52.921Z,99729.16
2019-01-13T04:28:18.836Z,99715.36
2019-01-13T04:30:44.733Z,99710.21
2019-01-13T04:33:10.653Z,99698.86
2019-01-13T04:35:36.516Z,99700.88
2019-01-13T04:38:22.427Z,99690.16
2019-01-13T04:40:48.346Z,99698.36
2019-01-13T04:43:14.259Z,99686.92
2019-01-13T04:45:40.117Z,99691.95
2019-01-13T04:48:05.987Z,99687.95
2019-01-13T04:50:31.901Z,99690.09
2019-01-13T04:52:57.772Z,99681.39
2019-01-13T04:55:23.680Z,99676.72
2019-01-13T04:57:49.565Z,99676.05
2019-01-13T05:00:57.429Z,99686.06
2019-01-13T05:03:23.351Z,99675.04
2019-01-13T05:05:49.215Z,99680.40
2019-01-13T05:08:15.117Z,99674.13
2019-01-13T05:10:41.024Z,99676.98
2019-01-13T05:13:06.947Z,99658.09
2019-01-13T05:15:32.822Z,99667.94
2019-01-13T05:17:58.745Z,99665.50
2019-01-13T05:20:24.608Z,99658.21
2019-01-13T05:22:50.495Z,99660.22
2019-01-13T05:25:16.360Z,99653.45
2019-01-13T05:27:42.256Z,99657.44
2019-01-13T05:33:22.290Z,99652.11
2019-01-13T05:35:48.160Z,99636.77
2019-01-13T05:38:14.129Z,99637.16
2019-01-13T05:40:39.988Z,99631.97
2019-01-13T05:43:05.861Z,99619.53
2019-01-13T05:45:31.785Z,99617.97
2019-01-13T05:47:57.650Z,99614.02
2019-01-13T05:50:23.561Z,99613.95
2019-01-13T05:55:36.963Z,99602.48
2019-01-13T05:58:02.830Z,99594.73
2019-01-13T06:03:02.832Z,99590.99
2019-01-13T06:05:28.745Z,99592.94
2019-01-13T06:07:54.657Z,99583.58
2019-01-13T06:10:20.549Z,99583.86
2019-01-13T06:12:46.426Z,99595.75
2019-01-13T06:15:53.978Z,99583.45
2019-01-13T06:18:19.874Z,99577.31
2019-01-13T06:20:45.794Z,99585.65
2019-01-13T06:23:11.701Z,99595.42
2019-01-13T06:25:37.571Z,99588.67
2019-01-13T06:28:03.483Z,99592.76
2019-01-13T06:30:29.353Z,99585.28
2019-01-13T06:32:55.253Z,99586.75
2019-01-13T06:35:21.115Z,99580.25
2019-01-13T06:37:47.087Z,99578.84
2019-01-13T06:43:26.604Z,99572.01
2019-01-13T06:45:52.485Z,99580.96
2019-01-13T06:48:18.386Z,99578.80
2019-01-13T06:50:44.253Z,99570.88
2019-01-13T06:53:10.171Z,99568.47
2019-01-13T06:55:36.080Z,99578.99
2019-01-13T06:58:01.964Z,99570.00
2019-01-13T07:00:27.855Z,99580.25
2019-01-13T07:02:53.723Z,99565.61
2019-01-13T07:05:19.631Z,99570.61
2019-01-13T07:07:45.543Z,99567.78
2019-01-13T07:10:11.409Z,99571.27
2019-01-13T07:12:37.302Z,99573.70
2019-01-13T07:15:44.807Z,99563.52
2019-01-13T07:18:24.338Z,99560.80
2019-01-13T07:20:50.249Z,99548.77
2019-01-13T07:23:16.155Z,99551.87
2019-01-13T07:25:42.032Z,99536.41
2019-01-13T07:28:07.941Z,99527.76
2019-01-13T07:30:33.831Z,99530.05
2019-01-13T07:32:59.737Z,99524.03
2019-01-13T07:35:25.612Z,99516.18
2019-01-13T07:37:51.546Z,99519.99
2019-01-13T07:43:31.501Z,99506.91
2019-01-13T07:45:57.356Z,99506.36
2019-01-13T07:48:43.140Z,99495.28
2019-01-13T07:51:09.047Z,99486.95
2019-01-13T07:53:34.931Z,99478.98
2019-01-13T07:56:00.837Z,99477.25
2019-01-13T07:58:26.729Z,99478.62
2019-01-13T08:00:52.628Z,99456.59
2019-01-13T08:03:18.504Z,99452.77
2019-01-13T08:05:44.416Z,99439.30
2019-01-13T08:08:10.320Z,99429.00
2019-01-13T08:10:36.229Z,99420.77
2019-01-13T08:13:02.139Z,99410.56
2019-01-13T08:15:28.009Z,99416.39
2019-01-13T08:17:53.944Z,99406.95
2019-01-13T08:23:33.154Z,99390.00
2019-01-13T08:25:59.042Z,99376.87
2019-01-13T08:28:24.964Z,99370.25
2019-01-13T08:30:50.826Z,99373.52
2019-01-13T08:33:16.720Z,99362.80
2019-01-13T08:35:42.588Z,99358.80
2019-01-13T08:38:08.498Z,99347.88
2019-01-13T08:40:34.835Z,99327.19
2019-01-13T08:43:02.230Z,99317.64
2019-01-13T08:45:28.101Z,99318.22
2019-01-13T08:47:54.024Z,99294.19
2019-01-13T08:50:19.998Z,99283.52
2019-01-13T08:52:45.917Z,99278.48
2019-01-13T08:55:11.778Z,99265.12
2019-01-13T08:57:37.695Z,99275.36
2019-01-13T09:03:17.075Z,99266.95
2019-01-13T09:05:42.947Z,99263.95
2019-01-13T09:08:08.859Z,99263.89
2019-01-13T09:10:34.736Z,99253.68
2019-01-13T09:13:00.653Z,99249.53
2019-01-13T09:15:26.509Z,99233.83
2019-01-13T09:17:52.417Z,99237.32
2019-01-13T09:20:59.969Z,99243.25
2019-01-13T09:23:25.872Z,99224.30
2019-01-13T09:25:51.769Z,99222.57
2019-01-13T09:28:17.705Z,99214.63
2019-01-13T09:30:43.578Z,99204.09
2019-01-13T09:33:09.492Z,99200.05
2019-01-13T09:35:35.376Z,99200.05
2019-01-13T09:40:35.180Z,99181.84
2019-01-13T09:43:01.205Z,99178.50
2019-01-13T09:45:27.071Z,99183.27
2019-01-13T09:47:52.979Z,99177.64
2019-01-13T09:56:11.870Z,99156.30
2019-01-13T09:58:37.901Z,99152.28
2019-01-13T10:01:03.781Z,99154.55
2019-01-13T10:03:29.681Z,99151.38
2019-01-13T10:05:55.546Z,99134.44
2019-01-13T10:08:21.448Z,99126.63
2019-01-13T10:10:47.326Z,99127.48
2019-01-13T10:13:13.252Z,99114.60
2019-01-13T10:15:39.128Z,99095.05
2019-01-13T10:18:05.010Z,99097.47
2019-01-13T10:20:30.931Z,99094.70
2019-01-13T10:22:56.792Z,99083.95
2019-01-13T10:25:22.757Z,99082.17
2019-01-13T10:27:48.713Z,99078.89
2019-01-13T10:31:03.007Z,99076.45
2019-01-13T10:33:24.191Z,99103.14
2019-01-13T10:35:50.080Z,99065.27
2019-01-13T10:38:15.946Z,99054.88
2019-01-13T10:40:41.859Z,99054.06
2019-01-13T10:43:07.724Z,99040.57
2019-01-13T10:45:33.633Z,99061.42
2019-01-13T10:47:59.682Z,99034.18
2019-01-13T10:53:26.189Z,99032.75
2019-01-13T10:55:52.065Z,99026.39
2019-01-13T10:58:17.983Z,99015.00
2019-01-13T11:00:43.865Z,99010.64
2019-01-13T11:03:09.794Z,99006.72
2019-01-13T11:05:49.307Z,99008.01
2019-01-13T11:08:15.249Z,98994.02
2019-01-13T11:10:41.132Z,98992.61
2019-01-13T11:13:07.006Z,99000.06
2019-01-13T11:15:32.912Z,98983.91
2019-01-13T11:17:58.778Z,98979.39
2019-01-13T11:21:06.320Z,98967.22
2019-01-13T11:23:32.266Z,98971.36
2019-01-13T11:25:58.138Z,98956.48
2019-01-13T11:31:10.138Z,98947.61
2019-01-13T11:33:36.052Z,98945.44
2019-01-13T11:36:01.980Z,98928.71
2019-01-13T11:38:27.871Z,98940.19
2019-01-13T11:40:53.779Z,98930.39
2019-01-13T11:43:19.664Z,98922.24
2019-01-13T11:45:45.581Z,98921.44
2019-01-13T11:48:11.450Z,98915.52
2019-01-13T11:50:37.361Z,98916.86
2019-01-13T11:55:57.642Z,98895.39
2019-01-13T11:58:23.526Z,98890.29
2019-01-13T12:00:49.781Z,98889.64
2019-01-13T12:03:17.095Z,98889.39
2019-01-13T12:05:43.511Z,98875.70
2019-01-13T12:08:09.454Z,98868.72
2019-01-13T12:10:35.339Z,98865.37
2019-01-13T12:13:01.247Z,98860.13
2019-01-13T12:15:27.123Z,98865.95
2019-01-13T12:17:53.048Z,98854.20
2019-01-13T12:21:00.580Z,98846.52
2019-01-13T12:23:26.501Z,98838.27
2019-01-13T12:25:53.013Z,98838.62
2019-01-13T12:28:20.281Z,98829.84
2019-01-13T12:30:46.208Z,98839.12
2019-01-13T12:33:12.122Z,98832.34
2019-01-13T12:35:38.042Z,98810.14
2019-01-13T12:38:03.912Z,98809.41
2019-01-13T12:41:11.446Z,98799.45
2019-01-13T12:43:37.358Z,98795.70
2019-01-13T12:46:03.273Z,98792.91
2019-01-13T12:48:29.148Z,98794.20
2019-01-13T12:50:55.050Z,98807.81
2019-01-13T12:53:20.932Z,98801.34
2019-01-13T12:55:46.843Z,98784.08
2019-01-13T12:58:12.720Z,98786.91
2019-01-13T13:00:38.736Z,98786.16
2019-01-13T13:03:04.638Z,98778.45
2019-01-13T13:05:30.543Z,98772.47
2019-01-13T13:07:56.451Z,98773.03
2019-01-13T13:10:42.222Z,98777.80
2019-01-13T13:16:00.021Z,98760.22
2019-01-13T13:18:25.924Z,98751.47
2019-01-13T13:21:11.779Z,98757.65
2019-01-13T13:23:37.723Z,98754.05
2019-01-13T13:26:03.597Z,98734.97
2019-01-13T13:28:29.523Z,98733.63
2019-01-13T13:30:55.433Z,98734.95
2019-01-13T13:33:21.322Z,98727.75
2019-01-13T13:35:47.217Z,98723.70
2019-01-13T13:38:13.117Z,98725.39
2019-01-13T13:43:11.287Z,98709.38
2019-01-13T13:45:37.197Z,98726.30
2019-01-13T13:48:03.285Z,98712.35
2019-01-13T13:50:29.204Z,98697.83
2019-01-13T13:52:55.083Z,98695.00
2019-01-13T13:56:02.621Z,98709.64
2019-01-13T13:58:28.536Z,98707.00
2019-01-13T14:00:54.472Z,98694.26
2019-01-13T14:03:20.352Z,98689.47
2019-01-13T14:05:46.211Z,98680.16
2019-01-13T14:08:31.987Z,98682.23
2019-01-13T14:10:57.893Z,98678.88
2019-01-13T14:13:23.813Z,98673.28
2019-01-13T14:15:49.694Z,98671.36
2019-01-13T14:18:15.604Z,98666.53
2019-01-13T14:20:41.486Z,98662.99
2019-01-13T14:23:15.115Z,98661.59
2019-01-13T14:25:41.042Z,98658.05
2019-01-13T14:28:06.959Z,98645.81
2019-01-13T14:30:32.838Z,98640.53
2019-01-13T14:32:58.717Z,98624.10
2019-01-13T14:35:24.616Z,98605.85
2019-01-13T14:37:50.529Z,98602.28
2019-01-13T14:40:58.075Z,98607.52
2019-01-13T14:43:23.975Z,98611.59
2019-01-13T14:45:49.884Z,98590.64
2019-01-13T14:48:15.756Z,98598.25
2019-01-13T14:50:41.670Z,98597.61
2019-01-13T14:53:07.554Z,98593.00
2019-01-13T14:55:33.466Z,98592.59
2019-01-13T14:57:59.328Z,98601.64
2019-01-13T15:01:06.875Z,98596.58
2019-01-13T15:03:32.769Z,98605.84
2019-01-13T15:05:58.680Z,98606.62
2019-01-13T15:08:24.600Z,98591.19
2019-01-13T15:10:50.511Z,98583.80
2019-01-13T15:13:16.401Z,98586.25
2019-01-13T15:15:42.315Z,98568.25
2019-01-13T15:18:08.220Z,98560.95
2019-01-13T15:20:34.142Z,98549.31
2019-01-13T15:23:00.021Z,98554.03
2019-01-13T15:26:07.563Z,98541.36
2019-01-13T15:28:33.479Z,98540.31
2019-01-13T15:30:59.408Z,98533.21
2019-01-13T15:33:25.308Z,98540.36
2019-01-13T15:35:51.204Z,98541.45
2019-01-13T15:38:17.215Z,98536.09
2019-01-13T15:40:43.125Z,98532.84
2019-01-13T15:43:09.018Z,98515.52
2019-01-13T15:45:34.935Z,98518.00
2019-01-13T15:48:00.835Z,98521.83
2019-01-13T15:51:08.367Z,98511.67
2019-01-13T15:53:34.284Z,98508.20
2019-01-13T15:56:00.207Z,98504.95
2019-01-13T15:58:26.071Z,98497.28
2019-01-13T16:00:51.979Z,98484.76
2019-01-13T16:03:17.875Z,98497.38
2019-01-13T16:05:43.792Z,98495.11
2019-01-13T16:08:09.676Z,98477.47
2019-01-13T16:10:35.593Z,98489.28
2019-01-13T16:13:01.500Z,98487.41
2019-01-13T16:15:33.959Z,98482.30
2019-01-13T16:17:55.241Z,98471.73
2019-01-13T16:20:41.045Z,98473.25
2019-01-13T16:23:06.954Z,98455.77
2019-01-13T16:25:32.977Z,98457.19
2019-01-13T16:27:58.958Z,98455.61
2019-01-13T16:30:44.720Z,98471.53
2019-01-13T16:33:10.668Z,98443.97
2019-01-13T16:35:36.608Z,98428.31
2019-01-13T16:38:02.508Z,98427.16
2019-01-13T16:40:28.418Z,98422.86
2019-01-13T16:42:54.331Z,98421.17
2019-01-13T16:45:20.215Z,98391.28
2019-01-13T16:48:27.759Z,98399.41
2019-01-13T16:50:53.685Z,98418.71
2019-01-13T16:53:19.597Z,98423.95
2019-01-13T16:55:45.475Z,98407.23
2019-01-13T16:58:11.384Z,98398.69
2019-01-13T17:03:10.815Z,98408.17
2019-01-13T17:05:36.818Z,98398.30
2019-01-13T17:08:44.354Z,98406.16
2019-01-13T17:11:10.302Z,98401.96
2019-01-13T17:13:36.195Z,98416.25
2019-01-13T17:16:02.094Z,98406.45
2019-01-13T17:18:27.982Z,98434.70
2019-01-13T17:20:53.882Z,98520.33
2019-01-13T17:23:19.763Z,98551.56
2019-01-13T17:25:45.678Z,98539.39
2019-01-13T17:28:11.545Z,98506.38
2019-01-13T17:30:37.421Z,98533.83
2019-01-13T17:35:57.088Z,98492.66
2019-01-13T17:38:22.960Z,98497.66
2019-01-13T17:40:48.873Z,98477.30
2019-01-13T17:43:34.621Z,98489.69
2019-01-13T17:46:00.548Z,98488.69
2019-01-13T17:48:26.482Z,98496.46
2019-01-13T17:50:52.363Z,98501.25
2019-01-13T17:53:18.277Z,98494.30
2019-01-13T17:55:44.151Z,98513.77
2019-01-13T17:58:10.059Z,98516.30
2019-01-13T18:01:17.609Z,98532.81
2019-01-13T18:03:43.677Z,98532.23
2019-01-13T18:06:09.543Z,98529.30
2019-01-13T18:08:35.411Z,98512.89
2019-01-13T18:11:01.325Z,98516.55
2019-01-13T18:13:27.188Z,98516.58
2019-01-13T18:15:53.116Z,98518.02
2019-01-13T18:18:19.087Z,98519.17
2019-01-13T18:20:44.988Z,98518.42
2019-01-13T18:23:10.872Z,98518.60
2019-01-13T18:25:36.769Z,98518.11
2019-01-13T18:28:02.655Z,98517.89
2019-01-13T18:30:28.582Z,98516.84
2019-01-13T18:32:54.468Z,98511.36
2019-01-13T18:36:02.004Z,98504.05
2019-01-13T18:38:28.000Z,98523.95
2019-01-13T18:40:53.879Z,98508.66
2019-01-13T18:43:19.784Z,98500.03
2019-01-13T18:45:45.671Z,98506.11
2019-01-13T18:48:11.585Z,98498.20
2019-01-13T18:50:37.471Z,98498.52
2019-01-13T18:53:45.007Z,98522.49
2019-01-13T18:56:10.936Z,98514.37
2019-01-13T18:58:36.841Z,98518.93
2019-01-13T19:01:02.815Z,98511.82
2019-01-13T19:03:28.735Z,98515.48
2019-01-13T19:05:54.635Z,98535.65
2019-01-13T19:08:20.561Z,98530.41
2019-01-13T19:17:01.034Z,98518.93
2019-01-13T19:20:08.530Z,98558.27
2019-01-13T19:22:34.453Z,98538.27
2019-01-13T19:25:00.424Z,98529.87
2019-01-13T19:27:26.338Z,98537.36
2019-01-13T19:29:52.222Z,98551.77
2019-01-13T19:32:18.152Z,98534.74
2019-01-13T19:34:44.025Z,98534.58
2019-01-13T19:37:09.946Z,98550.78
2019-01-13T19:39:35.831Z,98545.11
2019-01-13T19:42:01.748Z,98544.16
2019-01-13T19:44:27.627Z,98543.43
2019-01-13T19:46:53.529Z,98557.76
2019-01-13T19:49:19.461Z,98540.92
2019-01-13T19:51:45.339Z,98554.09
2019-01-13T19:54:11.259Z,98553.53
2019-01-13T19:56:37.135Z,98558.48
2019-01-13T19:59:03.040Z,98550.22
2019-01-13T20:01:28.926Z,98546.95
2019-01-13T20:03:54.829Z,98543.75
2019-01-13T20:06:20.766Z,98539.87
2019-01-13T20:08:46.686Z,98541.85
2019-01-13T20:11:12.548Z,98562.78
2019-01-13T20:13:38.483Z,98592.73
2019-01-13T20:16:04.356Z,98553.84
2019-01-13T20:18:30.305Z,98553.69
2019-01-13T20:20:56.191Z,98557.45
2019-01-13T20:23:22.120Z,98558.22
2019-01-13T20:25:47.987Z,98553.48
2019-01-13T20:28:13.915Z,98560.47
2019-01-13T20:30:39.778Z,98556.44
2019-01-13T20:33:05.702Z,98553.41
2019-01-13T20:38:38.901Z,98544.94
2019-01-13T20:41:04.775Z,98552.75
2019-01-13T20:46:02.750Z,98540.39
2019-01-13T20:48:28.656Z,98545.27
2019-01-13T20:50:54.522Z,98536.09
2019-01-13T20:53:20.440Z,98530.18
2019-01-13T20:55:46.328Z,98532.18
2019-01-13T20:58:12.255Z,98534.53
2019-01-13T21:00:38.161Z,98538.13
2019-01-13T21:03:04.095Z,98533.12
2019-01-13T21:05:29.993Z,98548.95
2019-01-13T21:07:55.941Z,98537.90
2019-01-13T21:10:21.825Z,98549.23
2019-01-13T21:12:47.739Z,98549.23
2019-01-13T21:24:09.556Z,98576.75
2019-01-13T21:26:35.433Z,98595.59
2019-01-13T21:29:01.332Z,98600.88
2019-01-13T21:31:27.249Z,98600.95
2019-01-13T21:33:53.164Z,98607.58
2019-01-13T21:36:19.032Z,98582.35
2019-01-13T21:38:44.994Z,98592.66
2019-01-13T21:41:10.854Z,98603.12
2019-01-13T21:43:36.769Z,98589.53
2019-01-13T21:46:02.646Z,98584.30
2019-01-13T21:48:28.572Z,98583.50
2019-01-13T21:50:54.445Z,98595.00
2019-01-13T21:53:20.347Z,98591.94
2019-01-13T21:55:46.218Z,98589.27
2019-01-13T21:58:12.131Z,98603.12
2019-01-13T22:00:38.021Z,98598.17
2019-01-13T22:03:03.930Z,98579.73
2019-01-13T22:05:29.838Z,98591.56
2019-01-13T22:07:55.717Z,98579.50
2019-01-13T22:11:03.260Z,98596.80
2019-01-13T22:13:29.316Z,98617.02
2019-01-13T22:15:55.235Z,98596.28
2019-01-13T22:18:21.115Z,98598.55
2019-01-13T22:20:47.335Z,98616.95
2019-01-13T22:23:13.252Z,98621.00
2019-01-13T22:25:39.140Z,98619.05
2019-01-13T22:28:05.003Z,98617.36
2019-01-13T22:30:30.905Z,98680.63
2019-01-13T22:32:56.817Z,98631.70
2019-01-13T22:35:22.684Z,98648.38
2019-01-13T22:37:55.195Z,98645.39
2019-01-13T22:40:30.243Z,98640.39
2019-01-13T22:42:56.217Z,98643.36
2019-01-13T22:45:22.327Z,98661.36
2019-01-13T22:47:48.323Z,98673.56
2019-01-13T22:50:56.421Z,98675.03
2019-01-13T22:53:42.289Z,98680.25
2019-01-13T22:56:08.199Z,98694.62
2019-01-13T22:58:34.105Z,98688.23
2019-01-13T23:04:14.017Z,98698.55
2019-01-13T23:06:39.888Z,98698.05
2019-01-13T23:09:50.620Z,98708.91
2019-01-13T23:12:16.836Z,98719.53
2019-01-13T23:14:42.741Z,98713.69
2019-01-13T23:17:08.620Z,98725.14
2019-01-13T23:19:34.527Z,98729.73
2019-01-13T23:22:00.400Z,98741.50
2019-01-13T23:24:26.426Z,98738.20
2019-01-13T23:26:52.304Z,98731.91
2019-01-13T23:29:18.175Z,98733.95
2019-01-13T23:31:44.071Z,98744.34
2019-01-13T23:34:09.942Z,98753.57
2019-01-13T23:36:35.844Z,98778.70
2019-01-13T23:41:49.196Z,98766.16
2019-01-13T23:44:15.132Z,98777.36
2019-01-13T23:46:41.042Z,98791.55
2019-01-13T23:49:07.017Z,98783.45
2019-01-13T23:51:32.999Z,98788.60
2019-01-13T23:53:58.925Z,98792.52
2019-01-13T23:56:24.798Z,98804.83
2019-01-13T23:58:50.707Z,98818.23
